sensor_id;sensor_type;location;lat;lon;timestamp;P1;durP1;ratioP1;P2;durP2;ratioP2
52708;SDS011;38606;52.986;6.980;2023-04-23T00:00:22;42.13;;;27.38;;
52708;SDS011;38606;52.986;6.980;2023-04-23T00:02:49;45.00;;;28.40;;
52708;SDS011;38606;52.986;6.980;2023-04-23T00:05:17;43.13;;;26.13;;
52708;SDS011;38606;52.986;6.980;2023-04-23T00:07:44;41.35;;;27.27;;
52708;SDS011;38606;52.986;6.980;2023-04-23T00:10:10;42.10;;;27.20;;
52708;SDS011;38606;52.986;6.980;2023-04-23T00:12:37;46.53;;;27.98;;
52708;SDS011;38606;52.986;6.980;2023-04-23T00:15:04;46.30;;;27.52;;
52708;SDS011;38606;52.986;6.980;2023-04-23T00:17:31;44.20;;;27.73;;
52708;SDS011;38606;52.986;6.980;2023-04-23T00:19:56;41.30;;;26.92;;
52708;SDS011;38606;52.986;6.980;2023-04-23T00:22:22;44.38;;;26.98;;
52708;SDS011;38606;52.986;6.980;2023-04-23T00:24:48;47.03;;;28.02;;
52708;SDS011;38606;52.986;6.980;2023-04-23T00:27:14;44.55;;;27.45;;
52708;SDS011;38606;52.986;6.980;2023-04-23T00:29:40;44.50;;;27.90;;
52708;SDS011;38606;52.986;6.980;2023-04-23T00:32:07;46.63;;;27.08;;
52708;SDS011;38606;52.986;6.980;2023-04-23T00:34:33;47.88;;;28.40;;
52708;SDS011;38606;52.986;6.980;2023-04-23T00:36:58;45.88;;;27.15;;
52708;SDS011;38606;52.986;6.980;2023-04-23T00:39:24;45.50;;;26.20;;
52708;SDS011;38606;52.986;6.980;2023-04-23T00:41:50;45.70;;;27.60;;
52708;SDS011;38606;52.986;6.980;2023-04-23T00:44:15;50.35;;;27.77;;
52708;SDS011;38606;52.986;6.980;2023-04-23T00:46:41;51.25;;;27.77;;
52708;SDS011;38606;52.986;6.980;2023-04-23T00:49:07;44.95;;;26.23;;
52708;SDS011;38606;52.986;6.980;2023-04-23T00:51:33;51.40;;;27.85;;
52708;SDS011;38606;52.986;6.980;2023-04-23T00:53:59;48.78;;;27.27;;
52708;SDS011;38606;52.986;6.980;2023-04-23T00:56:25;43.45;;;26.55;;
52708;SDS011;38606;52.986;6.980;2023-04-23T00:58:52;47.90;;;28.60;;
52708;SDS011;38606;52.986;6.980;2023-04-23T01:01:21;49.17;;;27.55;;
52708;SDS011;38606;52.986;6.980;2023-04-23T01:03:48;42.47;;;26.38;;
52708;SDS011;38606;52.986;6.980;2023-04-23T01:06:15;42.47;;;27.33;;
52708;SDS011;38606;52.986;6.980;2023-04-23T01:08:41;44.58;;;27.02;;
52708;SDS011;38606;52.986;6.980;2023-04-23T01:11:08;46.40;;;28.52;;
52708;SDS011;38606;52.986;6.980;2023-04-23T01:13:38;54.28;;;29.15;;
52708;SDS011;38606;52.986;6.980;2023-04-23T01:16:04;45.95;;;26.83;;
52708;SDS011;38606;52.986;6.980;2023-04-23T01:18:30;46.53;;;27.63;;
52708;SDS011;38606;52.986;6.980;2023-04-23T01:20:56;47.28;;;28.33;;
52708;SDS011;38606;52.986;6.980;2023-04-23T01:23:22;46.03;;;27.27;;
52708;SDS011;38606;52.986;6.980;2023-04-23T01:25:48;44.47;;;27.08;;
52708;SDS011;38606;52.986;6.980;2023-04-23T01:28:14;44.58;;;25.98;;
52708;SDS011;38606;52.986;6.980;2023-04-23T01:30:43;46.13;;;28.13;;
52708;SDS011;38606;52.986;6.980;2023-04-23T01:33:10;50.40;;;29.02;;
52708;SDS011;38606;52.986;6.980;2023-04-23T01:35:36;43.97;;;26.58;;
52708;SDS011;38606;52.986;6.980;2023-04-23T01:38:03;47.78;;;28.35;;
52708;SDS011;38606;52.986;6.980;2023-04-23T01:40:31;49.88;;;28.45;;
52708;SDS011;38606;52.986;6.980;2023-04-23T01:42:57;47.55;;;27.98;;
52708;SDS011;38606;52.986;6.980;2023-04-23T01:45:24;50.67;;;27.67;;
52708;SDS011;38606;52.986;6.980;2023-04-23T01:47:50;45.97;;;27.90;;
52708;SDS011;38606;52.986;6.980;2023-04-23T01:50:16;44.72;;;27.35;;
52708;SDS011;38606;52.986;6.980;2023-04-23T01:52:42;48.50;;;27.63;;
52708;SDS011;38606;52.986;6.980;2023-04-23T01:55:09;47.42;;;28.90;;
52708;SDS011;38606;52.986;6.980;2023-04-23T01:57:35;45.28;;;29.25;;
52708;SDS011;38606;52.986;6.980;2023-04-23T02:00:08;49.13;;;30.10;;
52708;SDS011;38606;52.986;6.980;2023-04-23T02:02:35;52.45;;;30.38;;
52708;SDS011;38606;52.986;6.980;2023-04-23T02:05:02;54.13;;;31.65;;
52708;SDS011;38606;52.986;6.980;2023-04-23T02:07:31;53.00;;;31.67;;
52708;SDS011;38606;52.986;6.980;2023-04-23T02:09:58;57.28;;;33.90;;
52708;SDS011;38606;52.986;6.980;2023-04-23T02:12:24;66.80;;;35.30;;
52708;SDS011;38606;52.986;6.980;2023-04-23T02:14:51;63.13;;;35.67;;
52708;SDS011;38606;52.986;6.980;2023-04-23T02:17:18;68.35;;;37.33;;
52708;SDS011;38606;52.986;6.980;2023-04-23T02:19:47;63.90;;;36.08;;
52708;SDS011;38606;52.986;6.980;2023-04-23T02:22:16;67.53;;;37.40;;
52708;SDS011;38606;52.986;6.980;2023-04-23T02:24:42;73.05;;;37.92;;
52708;SDS011;38606;52.986;6.980;2023-04-23T02:27:08;72.50;;;36.88;;
52708;SDS011;38606;52.986;6.980;2023-04-23T02:29:34;68.28;;;37.00;;
52708;SDS011;38606;52.986;6.980;2023-04-23T02:32:01;65.72;;;36.28;;
52708;SDS011;38606;52.986;6.980;2023-04-23T02:34:27;73.30;;;38.85;;
52708;SDS011;38606;52.986;6.980;2023-04-23T02:36:53;70.70;;;38.97;;
52708;SDS011;38606;52.986;6.980;2023-04-23T02:39:18;80.07;;;40.47;;
52708;SDS011;38606;52.986;6.980;2023-04-23T02:41:44;73.15;;;41.70;;
52708;SDS011;38606;52.986;6.980;2023-04-23T02:44:10;82.63;;;43.20;;
52708;SDS011;38606;52.986;6.980;2023-04-23T02:46:36;79.95;;;42.90;;
52708;SDS011;38606;52.986;6.980;2023-04-23T02:49:02;81.05;;;43.17;;
52708;SDS011;38606;52.986;6.980;2023-04-23T02:51:28;80.55;;;42.78;;
52708;SDS011;38606;52.986;6.980;2023-04-23T02:53:55;80.95;;;41.47;;
52708;SDS011;38606;52.986;6.980;2023-04-23T02:56:21;82.80;;;42.90;;
52708;SDS011;38606;52.986;6.980;2023-04-23T02:58:47;85.30;;;42.50;;
52708;SDS011;38606;52.986;6.980;2023-04-23T03:01:13;78.20;;;42.35;;
52708;SDS011;38606;52.986;6.980;2023-04-23T03:03:39;86.75;;;43.53;;
52708;SDS011;38606;52.986;6.980;2023-04-23T03:06:05;91.78;;;46.42;;
52708;SDS011;38606;52.986;6.980;2023-04-23T03:08:31;85.45;;;43.88;;
52708;SDS011;38606;52.986;6.980;2023-04-23T03:10:57;83.95;;;43.85;;
52708;SDS011;38606;52.986;6.980;2023-04-23T03:13:23;80.00;;;43.47;;
52708;SDS011;38606;52.986;6.980;2023-04-23T03:15:50;80.30;;;42.33;;
52708;SDS011;38606;52.986;6.980;2023-04-23T03:18:17;82.22;;;43.55;;
52708;SDS011;38606;52.986;6.980;2023-04-23T03:20:43;78.57;;;42.67;;
52708;SDS011;38606;52.986;6.980;2023-04-23T03:23:09;80.93;;;41.97;;
52708;SDS011;38606;52.986;6.980;2023-04-23T03:25:34;79.35;;;41.88;;
52708;SDS011;38606;52.986;6.980;2023-04-23T03:28:00;78.90;;;41.97;;
52708;SDS011;38606;52.986;6.980;2023-04-23T03:30:26;81.45;;;41.95;;
52708;SDS011;38606;52.986;6.980;2023-04-23T03:32:53;78.70;;;42.08;;
52708;SDS011;38606;52.986;6.980;2023-04-23T03:35:21;82.65;;;42.28;;
52708;SDS011;38606;52.986;6.980;2023-04-23T03:37:47;88.60;;;45.65;;
52708;SDS011;38606;52.986;6.980;2023-04-23T03:40:13;86.43;;;44.05;;
52708;SDS011;38606;52.986;6.980;2023-04-23T03:42:39;92.00;;;43.75;;
52708;SDS011;38606;52.986;6.980;2023-04-23T03:45:05;84.10;;;42.83;;
52708;SDS011;38606;52.986;6.980;2023-04-23T03:47:31;94.53;;;45.00;;
52708;SDS011;38606;52.986;6.980;2023-04-23T03:49:57;90.95;;;44.80;;
52708;SDS011;38606;52.986;6.980;2023-04-23T03:52:22;86.70;;;45.85;;
52708;SDS011;38606;52.986;6.980;2023-04-23T03:54:48;83.00;;;42.65;;
52708;SDS011;38606;52.986;6.980;2023-04-23T03:57:14;85.60;;;43.53;;
52708;SDS011;38606;52.986;6.980;2023-04-23T03:59:40;87.18;;;43.67;;
52708;SDS011;38606;52.986;6.980;2023-04-23T04:02:06;82.63;;;42.53;;
52708;SDS011;38606;52.986;6.980;2023-04-23T04:04:32;94.75;;;47.17;;
52708;SDS011;38606;52.986;6.980;2023-04-23T04:06:58;91.85;;;46.60;;
52708;SDS011;38606;52.986;6.980;2023-04-23T04:09:27;97.78;;;46.78;;
52708;SDS011;38606;52.986;6.980;2023-04-23T04:11:53;98.90;;;49.08;;
52708;SDS011;38606;52.986;6.980;2023-04-23T04:14:19;104.85;;;51.00;;
52708;SDS011;38606;52.986;6.980;2023-04-23T04:16:46;104.55;;;50.85;;
52708;SDS011;38606;52.986;6.980;2023-04-23T04:19:12;97.97;;;48.90;;
52708;SDS011;38606;52.986;6.980;2023-04-23T04:21:37;101.75;;;48.70;;
52708;SDS011;38606;52.986;6.980;2023-04-23T04:24:03;93.80;;;46.95;;
52708;SDS011;38606;52.986;6.980;2023-04-23T04:26:29;97.80;;;48.70;;
52708;SDS011;38606;52.986;6.980;2023-04-23T04:28:58;107.75;;;49.45;;
52708;SDS011;38606;52.986;6.980;2023-04-23T04:31:26;107.03;;;49.53;;
52708;SDS011;38606;52.986;6.980;2023-04-23T04:33:52;102.90;;;49.05;;
52708;SDS011;38606;52.986;6.980;2023-04-23T04:36:21;107.90;;;49.13;;
52708;SDS011;38606;52.986;6.980;2023-04-23T04:38:49;99.85;;;48.10;;
52708;SDS011;38606;52.986;6.980;2023-04-23T04:41:20;105.28;;;49.70;;
52708;SDS011;38606;52.986;6.980;2023-04-23T04:43:47;113.18;;;52.67;;
52708;SDS011;38606;52.986;6.980;2023-04-23T04:46:13;113.35;;;53.33;;
52708;SDS011;38606;52.986;6.980;2023-04-23T04:48:39;109.90;;;52.78;;
52708;SDS011;38606;52.986;6.980;2023-04-23T04:51:05;118.35;;;56.08;;
52708;SDS011;38606;52.986;6.980;2023-04-23T04:53:31;123.28;;;57.53;;
52708;SDS011;38606;52.986;6.980;2023-04-23T04:55:57;120.35;;;57.03;;
52708;SDS011;38606;52.986;6.980;2023-04-23T04:58:23;120.93;;;57.45;;
52708;SDS011;38606;52.986;6.980;2023-04-23T05:00:48;115.88;;;54.58;;
52708;SDS011;38606;52.986;6.980;2023-04-23T05:03:19;112.22;;;54.47;;
52708;SDS011;38606;52.986;6.980;2023-04-23T05:05:45;132.93;;;57.22;;
52708;SDS011;38606;52.986;6.980;2023-04-23T05:08:12;154.25;;;58.90;;
52708;SDS011;38606;52.986;6.980;2023-04-23T05:10:43;128.18;;;57.35;;
52708;SDS011;38606;52.986;6.980;2023-04-23T05:13:09;150.07;;;57.38;;
52708;SDS011;38606;52.986;6.980;2023-04-23T05:15:35;126.95;;;57.17;;
52708;SDS011;38606;52.986;6.980;2023-04-23T05:18:04;135.55;;;58.80;;
52708;SDS011;38606;52.986;6.980;2023-04-23T05:20:30;142.10;;;59.47;;
52708;SDS011;38606;52.986;6.980;2023-04-23T05:22:56;137.75;;;59.47;;
52708;SDS011;38606;52.986;6.980;2023-04-23T05:25:23;137.90;;;61.38;;
52708;SDS011;38606;52.986;6.980;2023-04-23T05:27:49;133.68;;;60.85;;
52708;SDS011;38606;52.986;6.980;2023-04-23T05:30:15;130.13;;;58.45;;
52708;SDS011;38606;52.986;6.980;2023-04-23T05:32:41;128.02;;;60.53;;
52708;SDS011;38606;52.986;6.980;2023-04-23T05:35:07;142.50;;;62.30;;
52708;SDS011;38606;52.986;6.980;2023-04-23T05:37:33;133.15;;;61.40;;
52708;SDS011;38606;52.986;6.980;2023-04-23T05:40:00;140.48;;;60.80;;
52708;SDS011;38606;52.986;6.980;2023-04-23T05:42:27;134.68;;;61.22;;
52708;SDS011;38606;52.986;6.980;2023-04-23T05:44:53;143.70;;;64.38;;
52708;SDS011;38606;52.986;6.980;2023-04-23T05:47:18;128.45;;;61.05;;
52708;SDS011;38606;52.986;6.980;2023-04-23T05:49:45;139.70;;;63.30;;
52708;SDS011;38606;52.986;6.980;2023-04-23T05:52:11;133.25;;;62.38;;
52708;SDS011;38606;52.986;6.980;2023-04-23T05:54:37;133.77;;;61.95;;
52708;SDS011;38606;52.986;6.980;2023-04-23T05:57:03;128.90;;;62.15;;
52708;SDS011;38606;52.986;6.980;2023-04-23T05:59:29;133.88;;;62.67;;
52708;SDS011;38606;52.986;6.980;2023-04-23T06:01:56;127.38;;;59.15;;
52708;SDS011;38606;52.986;6.980;2023-04-23T06:04:22;131.10;;;60.35;;
52708;SDS011;38606;52.986;6.980;2023-04-23T06:06:48;123.18;;;59.53;;
52708;SDS011;38606;52.986;6.980;2023-04-23T06:09:13;128.23;;;59.28;;
52708;SDS011;38606;52.986;6.980;2023-04-23T06:11:39;119.53;;;58.85;;
52708;SDS011;38606;52.986;6.980;2023-04-23T06:14:05;121.50;;;58.30;;
52708;SDS011;38606;52.986;6.980;2023-04-23T06:16:31;117.68;;;58.70;;
52708;SDS011;38606;52.986;6.980;2023-04-23T06:18:56;114.85;;;56.35;;
52708;SDS011;38606;52.986;6.980;2023-04-23T06:21:22;119.90;;;57.40;;
52708;SDS011;38606;52.986;6.980;2023-04-23T06:23:48;110.15;;;55.65;;
52708;SDS011;38606;52.986;6.980;2023-04-23T06:26:14;102.75;;;53.67;;
52708;SDS011;38606;52.986;6.980;2023-04-23T06:28:41;111.30;;;57.30;;
52708;SDS011;38606;52.986;6.980;2023-04-23T06:31:08;107.10;;;54.80;;
52708;SDS011;38606;52.986;6.980;2023-04-23T06:33:34;112.78;;;58.55;;
52708;SDS011;38606;52.986;6.980;2023-04-23T06:36:01;105.00;;;56.25;;
52708;SDS011;38606;52.986;6.980;2023-04-23T06:38:27;105.88;;;55.88;;
52708;SDS011;38606;52.986;6.980;2023-04-23T06:40:53;101.72;;;53.85;;
52708;SDS011;38606;52.986;6.980;2023-04-23T06:43:19;101.65;;;52.53;;
52708;SDS011;38606;52.986;6.980;2023-04-23T06:45:45;94.35;;;51.72;;
52708;SDS011;38606;52.986;6.980;2023-04-23T06:48:11;89.57;;;50.45;;
52708;SDS011;38606;52.986;6.980;2023-04-23T06:50:37;93.10;;;51.83;;
52708;SDS011;38606;52.986;6.980;2023-04-23T06:53:04;89.35;;;50.33;;
52708;SDS011;38606;52.986;6.980;2023-04-23T06:55:30;92.95;;;50.67;;
52708;SDS011;38606;52.986;6.980;2023-04-23T06:57:56;97.22;;;51.97;;
52708;SDS011;38606;52.986;6.980;2023-04-23T07:00:22;85.50;;;49.08;;
52708;SDS011;38606;52.986;6.980;2023-04-23T07:02:48;82.97;;;47.50;;
52708;SDS011;38606;52.986;6.980;2023-04-23T07:05:15;79.45;;;45.53;;
52708;SDS011;38606;52.986;6.980;2023-04-23T07:07:42;84.20;;;46.67;;
52708;SDS011;38606;52.986;6.980;2023-04-23T07:10:08;73.00;;;43.90;;
52708;SDS011;38606;52.986;6.980;2023-04-23T07:12:37;75.68;;;45.40;;
52708;SDS011;38606;52.986;6.980;2023-04-23T07:15:04;74.97;;;44.38;;
52708;SDS011;38606;52.986;6.980;2023-04-23T07:17:31;75.40;;;44.10;;
52708;SDS011;38606;52.986;6.980;2023-04-23T07:19:57;67.45;;;41.80;;
52708;SDS011;38606;52.986;6.980;2023-04-23T07:22:24;70.20;;;42.78;;
52708;SDS011;38606;52.986;6.980;2023-04-23T07:24:50;65.47;;;40.30;;
52708;SDS011;38606;52.986;6.980;2023-04-23T07:27:17;67.85;;;40.85;;
52708;SDS011;38606;52.986;6.980;2023-04-23T07:29:43;63.25;;;39.33;;
52708;SDS011;38606;52.986;6.980;2023-04-23T07:32:08;63.83;;;39.60;;
52708;SDS011;38606;52.986;6.980;2023-04-23T07:34:34;61.40;;;37.58;;
52708;SDS011;38606;52.986;6.980;2023-04-23T07:37:03;60.75;;;37.30;;
52708;SDS011;38606;52.986;6.980;2023-04-23T07:39:28;55.35;;;35.65;;
52708;SDS011;38606;52.986;6.980;2023-04-23T07:41:54;59.80;;;38.25;;
52708;SDS011;38606;52.986;6.980;2023-04-23T07:44:21;56.55;;;36.13;;
52708;SDS011;38606;52.986;6.980;2023-04-23T07:46:46;55.88;;;36.08;;
52708;SDS011;38606;52.986;6.980;2023-04-23T07:49:12;56.88;;;36.53;;
52708;SDS011;38606;52.986;6.980;2023-04-23T07:51:38;61.45;;;38.70;;
52708;SDS011;38606;52.986;6.980;2023-04-23T07:54:04;55.78;;;35.65;;
52708;SDS011;38606;52.986;6.980;2023-04-23T07:56:30;55.55;;;35.97;;
52708;SDS011;38606;52.986;6.980;2023-04-23T07:58:57;49.78;;;34.22;;
52708;SDS011;38606;52.986;6.980;2023-04-23T08:01:23;51.20;;;32.33;;
52708;SDS011;38606;52.986;6.980;2023-04-23T08:03:49;47.88;;;32.70;;
52708;SDS011;38606;52.986;6.980;2023-04-23T08:06:15;44.92;;;30.98;;
52708;SDS011;38606;52.986;6.980;2023-04-23T08:08:42;48.50;;;31.88;;
52708;SDS011;38606;52.986;6.980;2023-04-23T08:11:08;49.85;;;32.97;;
52708;SDS011;38606;52.986;6.980;2023-04-23T08:13:35;47.60;;;30.80;;
52708;SDS011;38606;52.986;6.980;2023-04-23T08:16:01;42.75;;;29.77;;
52708;SDS011;38606;52.986;6.980;2023-04-23T08:18:27;45.55;;;31.20;;
52708;SDS011;38606;52.986;6.980;2023-04-23T08:20:53;45.50;;;30.92;;
52708;SDS011;38606;52.986;6.980;2023-04-23T08:23:20;43.85;;;29.45;;
52708;SDS011;38606;52.986;6.980;2023-04-23T08:25:46;43.63;;;30.33;;
52708;SDS011;38606;52.986;6.980;2023-04-23T08:28:11;44.65;;;30.85;;
52708;SDS011;38606;52.986;6.980;2023-04-23T08:30:37;40.75;;;27.80;;
52708;SDS011;38606;52.986;6.980;2023-04-23T08:33:03;42.08;;;29.10;;
52708;SDS011;38606;52.986;6.980;2023-04-23T08:35:29;40.10;;;27.77;;
52708;SDS011;38606;52.986;6.980;2023-04-23T08:37:54;42.38;;;28.30;;
52708;SDS011;38606;52.986;6.980;2023-04-23T08:40:20;41.05;;;28.45;;
52708;SDS011;38606;52.986;6.980;2023-04-23T08:45:20;42.63;;;27.95;;
52708;SDS011;38606;52.986;6.980;2023-04-23T08:47:45;39.58;;;27.63;;
52708;SDS011;38606;52.986;6.980;2023-04-23T08:50:12;37.35;;;27.40;;
52708;SDS011;38606;52.986;6.980;2023-04-23T08:52:45;37.33;;;26.92;;
52708;SDS011;38606;52.986;6.980;2023-04-23T08:55:14;38.95;;;27.73;;
52708;SDS011;38606;52.986;6.980;2023-04-23T08:57:43;34.85;;;25.55;;
52708;SDS011;38606;52.986;6.980;2023-04-23T09:00:11;34.17;;;24.60;;
52708;SDS011;38606;52.986;6.980;2023-04-23T09:02:41;34.47;;;25.38;;
52708;SDS011;38606;52.986;6.980;2023-04-23T09:05:08;32.28;;;23.33;;
52708;SDS011;38606;52.986;6.980;2023-04-23T09:07:34;30.95;;;21.27;;
52708;SDS011;38606;52.986;6.980;2023-04-23T09:10:04;27.75;;;21.50;;
52708;SDS011;38606;52.986;6.980;2023-04-23T09:12:33;30.17;;;20.60;;
52708;SDS011;38606;52.986;6.980;2023-04-23T09:15:00;26.48;;;20.27;;
52708;SDS011;38606;52.986;6.980;2023-04-23T09:17:27;29.83;;;21.45;;
52708;SDS011;38606;52.986;6.980;2023-04-23T09:19:54;29.92;;;21.58;;
52708;SDS011;38606;52.986;6.980;2023-04-23T09:25:10;29.23;;;21.10;;
52708;SDS011;38606;52.986;6.980;2023-04-23T09:27:37;28.10;;;21.17;;
52708;SDS011;38606;52.986;6.980;2023-04-23T09:30:04;29.98;;;21.15;;
52708;SDS011;38606;52.986;6.980;2023-04-23T09:32:35;27.73;;;21.02;;
52708;SDS011;38606;52.986;6.980;2023-04-23T09:35:05;24.63;;;18.05;;
52708;SDS011;38606;52.986;6.980;2023-04-23T09:37:33;23.40;;;18.02;;
52708;SDS011;38606;52.986;6.980;2023-04-23T09:40:08;26.63;;;19.50;;
52708;SDS011;38606;52.986;6.980;2023-04-23T09:42:38;24.10;;;18.77;;
52708;SDS011;38606;52.986;6.980;2023-04-23T09:45:04;21.35;;;15.63;;
52708;SDS011;38606;52.986;6.980;2023-04-23T09:47:32;21.40;;;14.43;;
52708;SDS011;38606;52.986;6.980;2023-04-23T09:49:59;20.80;;;16.27;;
52708;SDS011;38606;52.986;6.980;2023-04-23T09:52:25;21.00;;;14.65;;
52708;SDS011;38606;52.986;6.980;2023-04-23T09:54:55;17.77;;;13.32;;
52708;SDS011;38606;52.986;6.980;2023-04-23T09:57:23;17.50;;;13.35;;
52708;SDS011;38606;52.986;6.980;2023-04-23T09:59:49;16.77;;;12.48;;
52708;SDS011;38606;52.986;6.980;2023-04-23T10:02:15;16.52;;;10.43;;
52708;SDS011;38606;52.986;6.980;2023-04-23T10:04:41;15.38;;;10.85;;
52708;SDS011;38606;52.986;6.980;2023-04-23T10:07:07;17.70;;;11.45;;
52708;SDS011;38606;52.986;6.980;2023-04-23T10:09:37;15.95;;;10.55;;
52708;SDS011;38606;52.986;6.980;2023-04-23T10:12:05;17.23;;;11.60;;
52708;SDS011;38606;52.986;6.980;2023-04-23T10:14:33;14.77;;;9.90;;
52708;SDS011;38606;52.986;6.980;2023-04-23T10:17:00;13.15;;;10.15;;
52708;SDS011;38606;52.986;6.980;2023-04-23T10:19:27;15.18;;;8.90;;
52708;SDS011;38606;52.986;6.980;2023-04-23T10:21:54;13.77;;;8.35;;
52708;SDS011;38606;52.986;6.980;2023-04-23T10:24:23;12.25;;;8.50;;
52708;SDS011;38606;52.986;6.980;2023-04-23T10:26:52;14.25;;;7.80;;
52708;SDS011;38606;52.986;6.980;2023-04-23T10:29:25;15.10;;;8.00;;
52708;SDS011;38606;52.986;6.980;2023-04-23T10:31:54;12.68;;;7.88;;
52708;SDS011;38606;52.986;6.980;2023-04-23T10:34:24;9.45;;;5.82;;
52708;SDS011;38606;52.986;6.980;2023-04-23T10:36:50;12.18;;;6.05;;
52708;SDS011;38606;52.986;6.980;2023-04-23T10:39:17;11.23;;;5.88;;
52708;SDS011;38606;52.986;6.980;2023-04-23T10:41:48;11.10;;;6.68;;
52708;SDS011;38606;52.986;6.980;2023-04-23T10:44:14;13.60;;;6.30;;
52708;SDS011;38606;52.986;6.980;2023-04-23T10:46:56;12.32;;;6.45;;
52708;SDS011;38606;52.986;6.980;2023-04-23T10:49:28;12.88;;;4.53;;
52708;SDS011;38606;52.986;6.980;2023-04-23T10:51:59;9.10;;;4.60;;
52708;SDS011;38606;52.986;6.980;2023-04-23T10:54:32;8.32;;;4.65;;
52708;SDS011;38606;52.986;6.980;2023-04-23T10:56:59;8.57;;;4.30;;
52708;SDS011;38606;52.986;6.980;2023-04-23T10:59:28;7.03;;;4.35;;
52708;SDS011;38606;52.986;6.980;2023-04-23T11:02:00;8.55;;;4.80;;
52708;SDS011;38606;52.986;6.980;2023-04-23T11:04:44;7.47;;;4.40;;
52708;SDS011;38606;52.986;6.980;2023-04-23T11:07:11;6.63;;;4.40;;
52708;SDS011;38606;52.986;6.980;2023-04-23T11:09:41;6.53;;;3.97;;
52708;SDS011;38606;52.986;6.980;2023-04-23T11:14:55;6.57;;;3.65;;
52708;SDS011;38606;52.986;6.980;2023-04-23T11:22:34;8.88;;;3.28;;
52708;SDS011;38606;52.986;6.980;2023-04-23T11:25:01;7.72;;;3.53;;
52708;SDS011;38606;52.986;6.980;2023-04-23T11:27:27;8.48;;;3.10;;
52708;SDS011;38606;52.986;6.980;2023-04-23T11:29:55;7.88;;;3.22;;
52708;SDS011;38606;52.986;6.980;2023-04-23T11:32:21;9.05;;;2.75;;
52708;SDS011;38606;52.986;6.980;2023-04-23T11:34:48;5.95;;;2.67;;
52708;SDS011;38606;52.986;6.980;2023-04-23T11:37:15;6.47;;;2.58;;
52708;SDS011;38606;52.986;6.980;2023-04-23T11:39:43;5.65;;;2.70;;
52708;SDS011;38606;52.986;6.980;2023-04-23T11:42:13;6.72;;;2.35;;
52708;SDS011;38606;52.986;6.980;2023-04-23T11:44:40;5.07;;;2.50;;
52708;SDS011;38606;52.986;6.980;2023-04-23T11:47:07;7.85;;;2.40;;
52708;SDS011;38606;52.986;6.980;2023-04-23T11:49:35;6.53;;;2.28;;
52708;SDS011;38606;52.986;6.980;2023-04-23T11:52:05;8.05;;;2.15;;
52708;SDS011;38606;52.986;6.980;2023-04-23T11:54:31;7.30;;;2.05;;
52708;SDS011;38606;52.986;6.980;2023-04-23T11:56:57;6.93;;;2.30;;
52708;SDS011;38606;52.986;6.980;2023-04-23T11:59:23;7.25;;;1.90;;
52708;SDS011;38606;52.986;6.980;2023-04-23T12:01:52;5.95;;;1.70;;
52708;SDS011;38606;52.986;6.980;2023-04-23T12:04:21;5.05;;;2.10;;
52708;SDS011;38606;52.986;6.980;2023-04-23T12:06:51;5.72;;;1.75;;
52708;SDS011;38606;52.986;6.980;2023-04-23T12:09:19;5.53;;;2.03;;
52708;SDS011;38606;52.986;6.980;2023-04-23T12:11:46;6.57;;;1.90;;
52708;SDS011;38606;52.986;6.980;2023-04-23T12:14:15;5.25;;;1.70;;
52708;SDS011;38606;52.986;6.980;2023-04-23T12:16:42;5.93;;;1.85;;
52708;SDS011;38606;52.986;6.980;2023-04-23T12:19:17;6.00;;;1.70;;
52708;SDS011;38606;52.986;6.980;2023-04-23T12:21:52;6.43;;;1.60;;
52708;SDS011;38606;52.986;6.980;2023-04-23T12:24:20;3.63;;;1.23;;
52708;SDS011;38606;52.986;6.980;2023-04-23T12:26:51;4.60;;;1.85;;
52708;SDS011;38606;52.986;6.980;2023-04-23T12:29:22;5.70;;;1.80;;
52708;SDS011;38606;52.986;6.980;2023-04-23T12:31:49;5.35;;;1.90;;
52708;SDS011;38606;52.986;6.980;2023-04-23T12:34:16;4.15;;;1.85;;
52708;SDS011;38606;52.986;6.980;2023-04-23T12:36:48;5.45;;;1.75;;
52708;SDS011;38606;52.986;6.980;2023-04-23T12:42:04;4.75;;;1.60;;
52708;SDS011;38606;52.986;6.980;2023-04-23T12:44:34;6.10;;;1.40;;
52708;SDS011;38606;52.986;6.980;2023-04-23T12:47:02;4.35;;;1.35;;
52708;SDS011;38606;52.986;6.980;2023-04-23T12:49:29;5.70;;;1.38;;
52708;SDS011;38606;52.986;6.980;2023-04-23T12:51:56;7.10;;;1.48;;
52708;SDS011;38606;52.986;6.980;2023-04-23T12:54:32;5.25;;;1.52;;
52708;SDS011;38606;52.986;6.980;2023-04-23T12:57:01;4.60;;;1.42;;
52708;SDS011;38606;52.986;6.980;2023-04-23T12:59:27;2.95;;;1.25;;
52708;SDS011;38606;52.986;6.980;2023-04-23T13:01:54;8.05;;;1.50;;
52708;SDS011;38606;52.986;6.980;2023-04-23T13:04:20;5.95;;;1.60;;
52708;SDS011;38606;52.986;6.980;2023-04-23T13:06:45;6.35;;;1.65;;
52708;SDS011;38606;52.986;6.980;2023-04-23T13:09:11;4.53;;;1.42;;
52708;SDS011;38606;52.986;6.980;2023-04-23T13:11:40;3.47;;;1.20;;
52708;SDS011;38606;52.986;6.980;2023-04-23T13:14:06;7.13;;;2.92;;
52708;SDS011;38606;52.986;6.980;2023-04-23T13:16:32;4.40;;;1.50;;
52708;SDS011;38606;52.986;6.980;2023-04-23T13:18:58;3.22;;;1.00;;
52708;SDS011;38606;52.986;6.980;2023-04-23T13:21:25;5.20;;;1.17;;
52708;SDS011;38606;52.986;6.980;2023-04-23T13:23:51;5.53;;;1.30;;
52708;SDS011;38606;52.986;6.980;2023-04-23T13:26:17;5.68;;;1.67;;
52708;SDS011;38606;52.986;6.980;2023-04-23T13:28:43;5.35;;;1.30;;
52708;SDS011;38606;52.986;6.980;2023-04-23T13:31:09;5.35;;;1.20;;
52708;SDS011;38606;52.986;6.980;2023-04-23T13:33:38;7.50;;;1.77;;
52708;SDS011;38606;52.986;6.980;2023-04-23T13:36:05;4.00;;;1.38;;
52708;SDS011;38606;52.986;6.980;2023-04-23T13:38:31;4.25;;;1.20;;
52708;SDS011;38606;52.986;6.980;2023-04-23T13:40:57;5.57;;;1.30;;
52708;SDS011;38606;52.986;6.980;2023-04-23T13:43:23;4.55;;;1.30;;
52708;SDS011;38606;52.986;6.980;2023-04-23T13:45:48;5.88;;;1.48;;
52708;SDS011;38606;52.986;6.980;2023-04-23T13:48:14;4.93;;;1.38;;
52708;SDS011;38606;52.986;6.980;2023-04-23T13:50:41;4.22;;;1.70;;
52708;SDS011;38606;52.986;6.980;2023-04-23T13:53:07;4.30;;;1.73;;
52708;SDS011;38606;52.986;6.980;2023-04-23T13:55:36;6.03;;;1.83;;
52708;SDS011;38606;52.986;6.980;2023-04-23T13:58:04;4.60;;;1.42;;
52708;SDS011;38606;52.986;6.980;2023-04-23T14:00:31;2.53;;;1.13;;
52708;SDS011;38606;52.986;6.980;2023-04-23T14:02:57;3.33;;;1.70;;
52708;SDS011;38606;52.986;6.980;2023-04-23T14:05:23;6.85;;;1.33;;
52708;SDS011;38606;52.986;6.980;2023-04-23T14:07:49;4.40;;;1.05;;
52708;SDS011;38606;52.986;6.980;2023-04-23T14:10:15;2.50;;;0.82;;
52708;SDS011;38606;52.986;6.980;2023-04-23T14:12:41;5.50;;;1.20;;
52708;SDS011;38606;52.986;6.980;2023-04-23T14:15:08;4.40;;;1.40;;
52708;SDS011;38606;52.986;6.980;2023-04-23T14:17:34;3.72;;;1.60;;
52708;SDS011;38606;52.986;6.980;2023-04-23T14:20:02;6.10;;;1.55;;
52708;SDS011;38606;52.986;6.980;2023-04-23T14:22:29;7.45;;;1.50;;
52708;SDS011;38606;52.986;6.980;2023-04-23T14:24:56;7.40;;;1.50;;
52708;SDS011;38606;52.986;6.980;2023-04-23T14:27:27;4.82;;;1.38;;
52708;SDS011;38606;52.986;6.980;2023-04-23T14:29:57;5.60;;;1.38;;
52708;SDS011;38606;52.986;6.980;2023-04-23T14:32:29;5.75;;;1.70;;
52708;SDS011;38606;52.986;6.980;2023-04-23T14:34:55;7.22;;;1.30;;
52708;SDS011;38606;52.986;6.980;2023-04-23T14:37:21;6.10;;;1.33;;
52708;SDS011;38606;52.986;6.980;2023-04-23T14:39:47;6.35;;;1.30;;